Colorado City Municipal Airport


Codes: KAZC/
Name: Colorado City Municipal Airport
City: Colorado City
Country: United States
Elevation: 4874 ft.
Wikipedia:

Photos at Colorado City Municipal Airport


   Photos courtesy of SpottingLog. You can add your own sightings and photos by signing up for a free trial today.



No photos found.

Weather at Colorado City Municipal Airport


Time (UTC)DescriptionTempratureWindCloud coverageVisibilityPressureHumidity
16-Jun-2024 03:00Clear Sky34°C13 mph, SW0%10000m1009hPa8%
16-Jun-2024 06:00Clear Sky27°C7 mph, S0%10000m1008hPa11%
16-Jun-2024 09:00Clear Sky20°C9 mph, S0%10000m1006hPa15%
16-Jun-2024 12:00Clear Sky19°C4 mph, SE0%10000m1006hPa18%
16-Jun-2024 15:00Clear Sky25°C7 mph, SE0%10000m1006hPa15%
16-Jun-2024 18:00Clear Sky31°C13 mph, SW0%10000m1003hPa9%
16-Jun-2024 21:00Clear Sky33°C22 mph, W0%10000m1001hPa8%
17-Jun-2024 00:00Clear Sky31°C25 mph, SW0%10000m1000hPa9%
17-Jun-2024 03:00Clear Sky25°C11 mph, SW0%10000m1001hPa14%
17-Jun-2024 06:00Clear Sky21°C9 mph, S0%10000m1002hPa16%
17-Jun-2024 09:00Clear Sky19°C7 mph, SE1%10000m1001hPa16%
17-Jun-2024 12:00Clear Sky18°C9 mph, SE0%10000m1001hPa18%
17-Jun-2024 15:00Clear Sky23°C9 mph, SE0%10000m1001hPa16%
17-Jun-2024 18:00Clear Sky29°C20 mph, SW0%10000m998hPa11%
17-Jun-2024 21:00Clear Sky31°C31 mph, SW0%10000m997hPa9%
18-Jun-2024 00:00Clear Sky29°C29 mph, SW0%10000m997hPa9%
18-Jun-2024 03:00Clear Sky24°C16 mph, W4%10000m998hPa15%
18-Jun-2024 06:00Few Clouds15°C9 mph, N19%10000m1004hPa33%
18-Jun-2024 09:00Broken Clouds13°C7 mph, N70%10000m1006hPa27%
18-Jun-2024 12:00Scattered Clouds11°C4 mph, N35%10000m1009hPa28%
18-Jun-2024 15:00Clear Sky16°C4 mph, NE0%10000m1009hPa19%
18-Jun-2024 18:00Few Clouds22°C4 mph, NW22%10000m1007hPa15%
18-Jun-2024 21:00Broken Clouds26°C11 mph, W72%10000m1005hPa10%
19-Jun-2024 00:00Scattered Clouds27°C13 mph, NW38%10000m1003hPa11%
19-Jun-2024 03:00Clear Sky21°C7 mph, NW0%10000m1005hPa12%
19-Jun-2024 06:00Clear Sky16°C2 mph, N1%10000m1007hPa16%
19-Jun-2024 09:00Overcast Clouds15°C4 mph, E88%10000m1008hPa16%
19-Jun-2024 12:00Scattered Clouds14°C4 mph, E46%10000m1009hPa18%
19-Jun-2024 15:00Clear Sky22°C4 mph, E0%10000m1009hPa12%
19-Jun-2024 18:00Clear Sky27°C7 mph, S0%10000m1007hPa12%
19-Jun-2024 21:00Clear Sky31°C18 mph, SW0%10000m1004hPa9%
20-Jun-2024 00:00Clear Sky31°C16 mph, W1%10000m1003hPa9%
20-Jun-2024 03:00Clear Sky24°C9 mph, NW3%10000m1005hPa12%
20-Jun-2024 06:00Clear Sky20°C4 mph, SW5%10000m1007hPa16%
20-Jun-2024 09:00Clear Sky19°C4 mph, S0%10000m1007hPa24%
20-Jun-2024 12:00Clear Sky18°C7 mph, E0%10000m1009hPa25%
20-Jun-2024 15:00Clear Sky25°C7 mph, SE2%10000m1009hPa17%
20-Jun-2024 18:00Clear Sky30°C11 mph, S1%10000m1008hPa15%
20-Jun-2024 21:00Scattered Clouds33°C16 mph, SW26%10000m1004hPa12%
21-Jun-2024 00:00Scattered Clouds33°C18 mph, SW30%10000m1003hPa11%